sensor_id;sensor_type;location;lat;lon;timestamp;P1;durP1;ratioP1;P2;durP2;ratioP2
31716;SDS011;18301;51.076;17.046;2022-11-20T00:03:22;158.80;;;53.42;;
31716;SDS011;18301;51.076;17.046;2022-11-20T00:08:24;137.80;;;48.67;;
31716;SDS011;18301;51.076;17.046;2022-11-20T00:13:25;126.32;;;45.47;;
31716;SDS011;18301;51.076;17.046;2022-11-20T00:18:27;121.35;;;45.03;;
31716;SDS011;18301;51.076;17.046;2022-11-20T00:23:28;73.68;;;29.88;;
31716;SDS011;18301;51.076;17.046;2022-11-20T00:28:30;77.55;;;30.90;;
31716;SDS011;18301;51.076;17.046;2022-11-20T00:33:33;77.82;;;31.65;;
31716;SDS011;18301;51.076;17.046;2022-11-20T00:38:35;98.20;;;37.08;;
31716;SDS011;18301;51.076;17.046;2022-11-20T00:43:36;79.50;;;32.92;;
31716;SDS011;18301;51.076;17.046;2022-11-20T00:48:38;82.78;;;32.33;;
31716;SDS011;18301;51.076;17.046;2022-11-20T00:53:40;81.63;;;31.77;;
31716;SDS011;18301;51.076;17.046;2022-11-20T00:58:42;87.28;;;34.15;;
31716;SDS011;18301;51.076;17.046;2022-11-20T01:03:46;80.10;;;32.70;;
31716;SDS011;18301;51.076;17.046;2022-11-20T01:08:50;83.10;;;31.42;;
31716;SDS011;18301;51.076;17.046;2022-11-20T01:13:54;79.07;;;29.65;;
31716;SDS011;18301;51.076;17.046;2022-11-20T01:18:57;88.70;;;30.75;;
31716;SDS011;18301;51.076;17.046;2022-11-20T01:24:00;86.65;;;30.70;;
31716;SDS011;18301;51.076;17.046;2022-11-20T01:29:03;75.05;;;27.48;;
31716;SDS011;18301;51.076;17.046;2022-11-20T01:34:07;74.00;;;28.35;;
31716;SDS011;18301;51.076;17.046;2022-11-20T01:39:18;78.78;;;27.98;;
31716;SDS011;18301;51.076;17.046;2022-11-20T01:50:25;57.95;;;23.50;;
31716;SDS011;18301;51.076;17.046;2022-11-20T01:55:33;47.80;;;21.20;;
31716;SDS011;18301;51.076;17.046;2022-11-20T02:00:39;53.58;;;21.75;;
31716;SDS011;18301;51.076;17.046;2022-11-20T02:05:43;49.70;;;21.35;;
31716;SDS011;18301;51.076;17.046;2022-11-20T02:10:50;53.22;;;21.20;;
31716;SDS011;18301;51.076;17.046;2022-11-20T02:15:52;57.65;;;23.08;;
31716;SDS011;18301;51.076;17.046;2022-11-20T02:20:54;53.88;;;21.13;;
31716;SDS011;18301;51.076;17.046;2022-11-20T02:26:05;106.70;;;35.10;;
31716;SDS011;18301;51.076;17.046;2022-11-20T02:31:11;80.13;;;28.67;;
31716;SDS011;18301;51.076;17.046;2022-11-20T02:36:14;99.72;;;36.42;;
31716;SDS011;18301;51.076;17.046;2022-11-20T02:41:17;83.68;;;31.65;;
31716;SDS011;18301;51.076;17.046;2022-11-20T02:46:18;58.67;;;23.77;;
31716;SDS011;18301;51.076;17.046;2022-11-20T02:51:20;52.70;;;21.05;;
31716;SDS011;18301;51.076;17.046;2022-11-20T02:56:21;55.28;;;23.45;;
31716;SDS011;18301;51.076;17.046;2022-11-20T03:01:23;50.13;;;21.50;;
31716;SDS011;18301;51.076;17.046;2022-11-20T03:06:25;45.17;;;18.83;;
31716;SDS011;18301;51.076;17.046;2022-11-20T03:11:27;53.78;;;20.58;;
31716;SDS011;18301;51.076;17.046;2022-11-20T03:16:30;49.88;;;20.50;;
31716;SDS011;18301;51.076;17.046;2022-11-20T03:21:33;47.63;;;19.92;;
31716;SDS011;18301;51.076;17.046;2022-11-20T03:26:35;52.10;;;21.08;;
31716;SDS011;18301;51.076;17.046;2022-11-20T03:31:37;51.38;;;21.60;;
31716;SDS011;18301;51.076;17.046;2022-11-20T03:36:43;51.70;;;21.45;;
31716;SDS011;18301;51.076;17.046;2022-11-20T03:41:44;52.20;;;20.70;;
31716;SDS011;18301;51.076;17.046;2022-11-20T03:46:46;60.58;;;23.58;;
31716;SDS011;18301;51.076;17.046;2022-11-20T03:51:47;60.47;;;21.70;;
31716;SDS011;18301;51.076;17.046;2022-11-20T03:56:49;50.13;;;20.70;;
31716;SDS011;18301;51.076;17.046;2022-11-20T04:01:50;52.05;;;20.65;;
31716;SDS011;18301;51.076;17.046;2022-11-20T04:06:52;57.40;;;23.20;;
31716;SDS011;18301;51.076;17.046;2022-11-20T04:11:53;51.08;;;21.60;;
31716;SDS011;18301;51.076;17.046;2022-11-20T04:16:54;55.40;;;22.90;;
31716;SDS011;18301;51.076;17.046;2022-11-20T04:21:56;54.65;;;22.48;;
31716;SDS011;18301;51.076;17.046;2022-11-20T04:26:57;50.17;;;21.45;;
31716;SDS011;18301;51.076;17.046;2022-11-20T04:31:59;50.40;;;21.48;;
31716;SDS011;18301;51.076;17.046;2022-11-20T04:37:00;48.92;;;20.83;;
31716;SDS011;18301;51.076;17.046;2022-11-20T04:42:02;50.85;;;21.38;;
31716;SDS011;18301;51.076;17.046;2022-11-20T04:47:24;56.85;;;22.58;;
31716;SDS011;18301;51.076;17.046;2022-11-20T04:52:26;71.00;;;26.77;;
31716;SDS011;18301;51.076;17.046;2022-11-20T04:57:28;57.10;;;23.20;;
31716;SDS011;18301;51.076;17.046;2022-11-20T05:02:30;55.05;;;23.83;;
31716;SDS011;18301;51.076;17.046;2022-11-20T05:07:32;57.03;;;22.98;;
31716;SDS011;18301;51.076;17.046;2022-11-20T05:12:33;71.32;;;27.85;;
31716;SDS011;18301;51.076;17.046;2022-11-20T05:17:35;70.70;;;27.08;;
31716;SDS011;18301;51.076;17.046;2022-11-20T05:22:36;65.63;;;27.50;;
31716;SDS011;18301;51.076;17.046;2022-11-20T05:27:38;105.60;;;37.92;;
31716;SDS011;18301;51.076;17.046;2022-11-20T05:32:39;83.00;;;30.50;;
31716;SDS011;18301;51.076;17.046;2022-11-20T05:37:41;69.95;;;27.27;;
31716;SDS011;18301;51.076;17.046;2022-11-20T05:42:42;72.85;;;26.88;;
31716;SDS011;18301;51.076;17.046;2022-11-20T05:47:44;62.58;;;26.10;;
31716;SDS011;18301;51.076;17.046;2022-11-20T05:52:46;83.75;;;34.33;;
31716;SDS011;18301;51.076;17.046;2022-11-20T05:57:48;103.68;;;40.03;;
31716;SDS011;18301;51.076;17.046;2022-11-20T06:02:49;65.45;;;26.55;;
31716;SDS011;18301;51.076;17.046;2022-11-20T06:07:51;67.38;;;26.75;;
31716;SDS011;18301;51.076;17.046;2022-11-20T06:12:52;62.00;;;24.50;;
31716;SDS011;18301;51.076;17.046;2022-11-20T06:17:54;75.53;;;28.25;;
31716;SDS011;18301;51.076;17.046;2022-11-20T06:22:56;68.28;;;26.98;;
31716;SDS011;18301;51.076;17.046;2022-11-20T06:27:57;67.93;;;26.33;;
31716;SDS011;18301;51.076;17.046;2022-11-20T06:32:59;63.05;;;25.17;;
31716;SDS011;18301;51.076;17.046;2022-11-20T06:38:00;86.38;;;33.15;;
31716;SDS011;18301;51.076;17.046;2022-11-20T06:43:02;79.00;;;29.88;;
31716;SDS011;18301;51.076;17.046;2022-11-20T06:48:03;95.97;;;35.75;;
31716;SDS011;18301;51.076;17.046;2022-11-20T06:53:05;97.93;;;34.03;;
31716;SDS011;18301;51.076;17.046;2022-11-20T06:58:06;92.07;;;35.88;;
31716;SDS011;18301;51.076;17.046;2022-11-20T07:03:08;66.97;;;28.73;;
31716;SDS011;18301;51.076;17.046;2022-11-20T07:08:11;69.60;;;28.15;;
31716;SDS011;18301;51.076;17.046;2022-11-20T07:13:13;69.32;;;29.77;;
31716;SDS011;18301;51.076;17.046;2022-11-20T07:18:15;65.95;;;29.40;;
31716;SDS011;18301;51.076;17.046;2022-11-20T07:23:16;77.95;;;33.03;;
31716;SDS011;18301;51.076;17.046;2022-11-20T07:28:17;73.55;;;30.40;;
31716;SDS011;18301;51.076;17.046;2022-11-20T07:33:19;73.38;;;30.58;;
31716;SDS011;18301;51.076;17.046;2022-11-20T07:38:21;74.38;;;29.50;;
31716;SDS011;18301;51.076;17.046;2022-11-20T07:43:23;74.88;;;29.50;;
31716;SDS011;18301;51.076;17.046;2022-11-20T07:48:25;71.72;;;31.13;;
31716;SDS011;18301;51.076;17.046;2022-11-20T07:53:27;151.65;;;66.63;;
31716;SDS011;18301;51.076;17.046;2022-11-20T07:58:29;93.80;;;43.70;;
31716;SDS011;18301;51.076;17.046;2022-11-20T08:03:31;79.20;;;33.22;;
31716;SDS011;18301;51.076;17.046;2022-11-20T08:08:32;71.45;;;29.67;;
31716;SDS011;18301;51.076;17.046;2022-11-20T08:13:38;69.55;;;28.10;;
31716;SDS011;18301;51.076;17.046;2022-11-20T08:18:58;62.47;;;26.52;;
31716;SDS011;18301;51.076;17.046;2022-11-20T08:23:59;68.70;;;28.38;;
31716;SDS011;18301;51.076;17.046;2022-11-20T08:29:01;51.83;;;23.92;;
31716;SDS011;18301;51.076;17.046;2022-11-20T08:34:02;49.92;;;23.35;;
31716;SDS011;18301;51.076;17.046;2022-11-20T08:39:12;55.92;;;23.67;;
31716;SDS011;18301;51.076;17.046;2022-11-20T08:44:14;64.00;;;26.92;;
31716;SDS011;18301;51.076;17.046;2022-11-20T08:49:15;84.68;;;33.88;;
31716;SDS011;18301;51.076;17.046;2022-11-20T08:54:17;61.67;;;27.08;;
31716;SDS011;18301;51.076;17.046;2022-11-20T08:59:20;46.88;;;20.85;;
31716;SDS011;18301;51.076;17.046;2022-11-20T09:04:42;47.30;;;21.73;;
31716;SDS011;18301;51.076;17.046;2022-11-20T09:09:43;46.60;;;21.38;;
31716;SDS011;18301;51.076;17.046;2022-11-20T09:14:46;46.38;;;21.48;;
31716;SDS011;18301;51.076;17.046;2022-11-20T09:19:54;48.10;;;21.77;;
31716;SDS011;18301;51.076;17.046;2022-11-20T09:24:56;38.95;;;18.65;;
31716;SDS011;18301;51.076;17.046;2022-11-20T09:29:57;33.65;;;16.20;;
31716;SDS011;18301;51.076;17.046;2022-11-20T09:34:59;35.17;;;16.80;;
31716;SDS011;18301;51.076;17.046;2022-11-20T09:40:05;36.83;;;17.88;;
31716;SDS011;18301;51.076;17.046;2022-11-20T09:45:20;34.85;;;16.52;;
31716;SDS011;18301;51.076;17.046;2022-11-20T09:50:33;37.33;;;17.35;;
31716;SDS011;18301;51.076;17.046;2022-11-20T09:55:42;38.58;;;17.55;;
31716;SDS011;18301;51.076;17.046;2022-11-20T10:00:44;32.92;;;15.55;;
31716;SDS011;18301;51.076;17.046;2022-11-20T10:05:47;36.05;;;16.63;;
31716;SDS011;18301;51.076;17.046;2022-11-20T10:10:54;37.92;;;18.00;;
31716;SDS011;18301;51.076;17.046;2022-11-20T10:26:43;34.95;;;16.95;;
31716;SDS011;18301;51.076;17.046;2022-11-20T10:32:24;35.30;;;17.13;;
31716;SDS011;18301;51.076;17.046;2022-11-20T10:37:34;28.20;;;15.25;;
31716;SDS011;18301;51.076;17.046;2022-11-20T10:42:45;32.88;;;15.02;;
31716;SDS011;18301;51.076;17.046;2022-11-20T10:53:16;32.78;;;14.68;;
31716;SDS011;18301;51.076;17.046;2022-11-20T10:58:38;29.00;;;14.77;;
31716;SDS011;18301;51.076;17.046;2022-11-20T11:03:47;31.20;;;14.85;;
31716;SDS011;18301;51.076;17.046;2022-11-20T11:08:49;31.10;;;14.75;;
31716;SDS011;18301;51.076;17.046;2022-11-20T11:13:52;29.83;;;13.93;;
31716;SDS011;18301;51.076;17.046;2022-11-20T11:19:10;31.60;;;14.00;;
31716;SDS011;18301;51.076;17.046;2022-11-20T11:24:23;30.35;;;14.30;;
31716;SDS011;18301;51.076;17.046;2022-11-20T11:29:43;34.20;;;14.68;;
31716;SDS011;18301;51.076;17.046;2022-11-20T11:34:58;27.77;;;13.65;;
31716;SDS011;18301;51.076;17.046;2022-11-20T11:40:03;27.20;;;12.75;;
31716;SDS011;18301;51.076;17.046;2022-11-20T11:45:26;26.15;;;12.93;;
31716;SDS011;18301;51.076;17.046;2022-11-20T11:50:28;25.20;;;12.45;;
31716;SDS011;18301;51.076;17.046;2022-11-20T12:00:39;29.83;;;13.35;;
31716;SDS011;18301;51.076;17.046;2022-11-20T12:05:47;26.05;;;13.35;;
31716;SDS011;18301;51.076;17.046;2022-11-20T12:11:03;29.40;;;13.70;;
31716;SDS011;18301;51.076;17.046;2022-11-20T12:16:13;24.65;;;12.77;;
31716;SDS011;18301;51.076;17.046;2022-11-20T12:21:20;27.00;;;13.52;;
31716;SDS011;18301;51.076;17.046;2022-11-20T12:37:11;24.48;;;11.45;;
31716;SDS011;18301;51.076;17.046;2022-11-20T12:42:23;23.88;;;12.40;;
31716;SDS011;18301;51.076;17.046;2022-11-20T13:03:48;25.40;;;11.93;;
31716;SDS011;18301;51.076;17.046;2022-11-20T13:08:54;24.15;;;10.90;;
31716;SDS011;18301;51.076;17.046;2022-11-20T13:19:10;21.05;;;10.82;;
31716;SDS011;18301;51.076;17.046;2022-11-20T13:29:25;22.60;;;11.27;;
31716;SDS011;18301;51.076;17.046;2022-11-20T13:34:27;21.80;;;10.43;;
31716;SDS011;18301;51.076;17.046;2022-11-20T13:39:32;19.20;;;10.60;;
31716;SDS011;18301;51.076;17.046;2022-11-20T13:44:39;25.55;;;11.15;;
31716;SDS011;18301;51.076;17.046;2022-11-20T13:49:45;21.98;;;11.07;;
31716;SDS011;18301;51.076;17.046;2022-11-20T13:54:52;18.52;;;9.73;;
31716;SDS011;18301;51.076;17.046;2022-11-20T14:05:19;25.48;;;11.60;;
31716;SDS011;18301;51.076;17.046;2022-11-20T14:10:25;27.33;;;12.40;;
31716;SDS011;18301;51.076;17.046;2022-11-20T14:15:33;27.53;;;11.73;;
31716;SDS011;18301;51.076;17.046;2022-11-20T14:20:38;26.13;;;12.45;;
31716;SDS011;18301;51.076;17.046;2022-11-20T14:25:43;24.95;;;12.88;;
31716;SDS011;18301;51.076;17.046;2022-11-20T14:30:46;26.75;;;13.48;;
31716;SDS011;18301;51.076;17.046;2022-11-20T14:35:50;26.70;;;13.43;;
31716;SDS011;18301;51.076;17.046;2022-11-20T14:40:53;27.92;;;14.52;;
31716;SDS011;18301;51.076;17.046;2022-11-20T14:45:59;28.60;;;14.40;;
31716;SDS011;18301;51.076;17.046;2022-11-20T14:51:03;28.20;;;14.23;;
31716;SDS011;18301;51.076;17.046;2022-11-20T14:56:05;28.67;;;14.18;;
31716;SDS011;18301;51.076;17.046;2022-11-20T15:01:07;29.42;;;14.98;;
31716;SDS011;18301;51.076;17.046;2022-11-20T15:06:12;27.45;;;13.88;;
31716;SDS011;18301;51.076;17.046;2022-11-20T15:11:22;27.05;;;13.65;;
31716;SDS011;18301;51.076;17.046;2022-11-20T15:16:29;33.60;;;15.50;;
31716;SDS011;18301;51.076;17.046;2022-11-20T15:21:31;35.13;;;16.30;;
31716;SDS011;18301;51.076;17.046;2022-11-20T15:26:32;31.55;;;15.82;;
31716;SDS011;18301;51.076;17.046;2022-11-20T15:31:35;33.90;;;15.85;;
31716;SDS011;18301;51.076;17.046;2022-11-20T15:36:38;40.38;;;17.05;;
31716;SDS011;18301;51.076;17.046;2022-11-20T15:41:40;49.50;;;20.25;;
31716;SDS011;18301;51.076;17.046;2022-11-20T15:46:41;39.55;;;19.27;;
31716;SDS011;18301;51.076;17.046;2022-11-20T15:51:47;50.00;;;20.73;;
31716;SDS011;18301;51.076;17.046;2022-11-20T15:56:49;45.30;;;21.33;;
31716;SDS011;18301;51.076;17.046;2022-11-20T16:01:53;42.42;;;20.17;;
31716;SDS011;18301;51.076;17.046;2022-11-20T16:06:55;52.53;;;24.45;;
31716;SDS011;18301;51.076;17.046;2022-11-20T16:11:56;50.50;;;22.88;;
31716;SDS011;18301;51.076;17.046;2022-11-20T16:17:00;51.90;;;24.40;;
31716;SDS011;18301;51.076;17.046;2022-11-20T16:22:02;58.00;;;26.20;;
31716;SDS011;18301;51.076;17.046;2022-11-20T16:27:04;58.38;;;25.92;;
31716;SDS011;18301;51.076;17.046;2022-11-20T16:32:06;61.65;;;26.30;;
31716;SDS011;18301;51.076;17.046;2022-11-20T16:37:07;63.22;;;27.48;;
31716;SDS011;18301;51.076;17.046;2022-11-20T16:42:09;61.25;;;26.50;;
31716;SDS011;18301;51.076;17.046;2022-11-20T16:47:10;66.90;;;30.95;;
31716;SDS011;18301;51.076;17.046;2022-11-20T16:52:12;69.50;;;31.02;;
31716;SDS011;18301;51.076;17.046;2022-11-20T16:57:13;70.90;;;30.17;;
31716;SDS011;18301;51.076;17.046;2022-11-20T17:02:15;74.78;;;32.25;;
31716;SDS011;18301;51.076;17.046;2022-11-20T17:07:16;96.53;;;37.65;;
31716;SDS011;18301;51.076;17.046;2022-11-20T17:12:18;90.00;;;36.85;;
31716;SDS011;18301;51.076;17.046;2022-11-20T17:17:19;79.20;;;33.85;;
31716;SDS011;18301;51.076;17.046;2022-11-20T17:22:21;81.70;;;34.40;;
31716;SDS011;18301;51.076;17.046;2022-11-20T17:27:22;70.05;;;30.48;;
31716;SDS011;18301;51.076;17.046;2022-11-20T17:32:24;95.82;;;35.78;;
31716;SDS011;18301;51.076;17.046;2022-11-20T17:37:25;100.30;;;38.95;;
31716;SDS011;18301;51.076;17.046;2022-11-20T17:42:27;108.70;;;43.58;;
31716;SDS011;18301;51.076;17.046;2022-11-20T17:47:30;78.95;;;33.10;;
31716;SDS011;18301;51.076;17.046;2022-11-20T17:52:32;72.00;;;29.25;;
31716;SDS011;18301;51.076;17.046;2022-11-20T17:57:33;67.63;;;27.70;;
31716;SDS011;18301;51.076;17.046;2022-11-20T18:02:52;88.03;;;33.67;;
31716;SDS011;18301;51.076;17.046;2022-11-20T18:07:55;65.25;;;28.10;;
31716;SDS011;18301;51.076;17.046;2022-11-20T18:12:57;62.25;;;26.83;;
31716;SDS011;18301;51.076;17.046;2022-11-20T18:17:58;50.92;;;22.73;;
31716;SDS011;18301;51.076;17.046;2022-11-20T18:23:00;53.15;;;22.50;;
31716;SDS011;18301;51.076;17.046;2022-11-20T18:28:02;62.70;;;25.45;;
31716;SDS011;18301;51.076;17.046;2022-11-20T18:33:03;58.40;;;25.13;;
31716;SDS011;18301;51.076;17.046;2022-11-20T18:38:05;65.97;;;26.85;;
31716;SDS011;18301;51.076;17.046;2022-11-20T18:43:09;61.45;;;26.55;;
31716;SDS011;18301;51.076;17.046;2022-11-20T18:48:30;59.42;;;25.73;;
31716;SDS011;18301;51.076;17.046;2022-11-20T18:53:35;58.15;;;26.08;;
31716;SDS011;18301;51.076;17.046;2022-11-20T18:58:36;63.47;;;26.02;;
31716;SDS011;18301;51.076;17.046;2022-11-20T19:03:39;60.60;;;25.20;;
31716;SDS011;18301;51.076;17.046;2022-11-20T19:08:40;60.08;;;25.00;;
31716;SDS011;18301;51.076;17.046;2022-11-20T19:13:42;57.80;;;24.73;;
31716;SDS011;18301;51.076;17.046;2022-11-20T19:18:44;63.03;;;26.70;;
31716;SDS011;18301;51.076;17.046;2022-11-20T19:23:46;71.35;;;29.70;;
31716;SDS011;18301;51.076;17.046;2022-11-20T19:28:52;62.25;;;27.25;;
31716;SDS011;18301;51.076;17.046;2022-11-20T19:33:58;82.60;;;33.63;;
31716;SDS011;18301;51.076;17.046;2022-11-20T19:39:02;69.45;;;29.67;;
31716;SDS011;18301;51.076;17.046;2022-11-20T19:44:09;73.30;;;30.48;;
31716;SDS011;18301;51.076;17.046;2022-11-20T19:49:14;65.40;;;28.87;;
31716;SDS011;18301;51.076;17.046;2022-11-20T19:54:16;68.28;;;30.85;;
31716;SDS011;18301;51.076;17.046;2022-11-20T19:59:17;62.53;;;28.15;;
31716;SDS011;18301;51.076;17.046;2022-11-20T20:04:19;63.72;;;29.23;;
31716;SDS011;18301;51.076;17.046;2022-11-20T20:09:20;62.33;;;28.50;;
31716;SDS011;18301;51.076;17.046;2022-11-20T20:14:24;63.38;;;27.75;;
31716;SDS011;18301;51.076;17.046;2022-11-20T20:19:26;83.20;;;35.88;;
31716;SDS011;18301;51.076;17.046;2022-11-20T20:24:27;78.50;;;33.90;;
31716;SDS011;18301;51.076;17.046;2022-11-20T20:29:29;69.30;;;29.85;;
31716;SDS011;18301;51.076;17.046;2022-11-20T20:34:30;71.20;;;30.98;;
31716;SDS011;18301;51.076;17.046;2022-11-20T20:39:32;73.03;;;31.55;;
31716;SDS011;18301;51.076;17.046;2022-11-20T20:44:33;73.20;;;31.77;;
31716;SDS011;18301;51.076;17.046;2022-11-20T20:49:54;74.78;;;31.98;;
31716;SDS011;18301;51.076;17.046;2022-11-20T20:54:55;75.97;;;32.90;;
31716;SDS011;18301;51.076;17.046;2022-11-20T20:59:57;83.85;;;35.17;;
31716;SDS011;18301;51.076;17.046;2022-11-20T21:04:58;84.10;;;35.38;;
31716;SDS011;18301;51.076;17.046;2022-11-20T21:10:00;103.82;;;41.63;;
31716;SDS011;18301;51.076;17.046;2022-11-20T21:15:01;122.90;;;50.45;;
31716;SDS011;18301;51.076;17.046;2022-11-20T21:20:03;155.60;;;54.33;;
31716;SDS011;18301;51.076;17.046;2022-11-20T21:25:24;145.10;;;55.08;;
31716;SDS011;18301;51.076;17.046;2022-11-20T21:30:26;155.07;;;58.35;;
31716;SDS011;18301;51.076;17.046;2022-11-20T21:35:27;147.90;;;55.83;;
31716;SDS011;18301;51.076;17.046;2022-11-20T21:40:29;140.63;;;52.45;;
31716;SDS011;18301;51.076;17.046;2022-11-20T21:45:30;139.30;;;51.78;;
31716;SDS011;18301;51.076;17.046;2022-11-20T21:50:33;133.77;;;51.53;;
31716;SDS011;18301;51.076;17.046;2022-11-20T21:55:34;125.00;;;49.55;;
31716;SDS011;18301;51.076;17.046;2022-11-20T22:00:36;94.00;;;36.38;;
31716;SDS011;18301;51.076;17.046;2022-11-20T22:05:37;103.00;;;40.13;;
31716;SDS011;18301;51.076;17.046;2022-11-20T22:10:39;92.50;;;37.67;;
31716;SDS011;18301;51.076;17.046;2022-11-20T22:15:40;92.75;;;38.65;;
31716;SDS011;18301;51.076;17.046;2022-11-20T22:21:04;94.40;;;37.90;;
31716;SDS011;18301;51.076;17.046;2022-11-20T22:26:14;113.93;;;40.42;;
31716;SDS011;18301;51.076;17.046;2022-11-20T22:31:17;107.97;;;40.60;;
31716;SDS011;18301;51.076;17.046;2022-11-20T22:36:24;108.45;;;41.08;;
31716;SDS011;18301;51.076;17.046;2022-11-20T22:41:28;99.75;;;39.60;;
31716;SDS011;18301;51.076;17.046;2022-11-20T22:46:31;104.90;;;39.35;;
31716;SDS011;18301;51.076;17.046;2022-11-20T22:51:35;111.57;;;46.05;;
31716;SDS011;18301;51.076;17.046;2022-11-20T22:56:39;108.20;;;41.13;;
31716;SDS011;18301;51.076;17.046;2022-11-20T23:01:41;111.70;;;43.40;;
31716;SDS011;18301;51.076;17.046;2022-11-20T23:06:42;117.60;;;43.28;;
31716;SDS011;18301;51.076;17.046;2022-11-20T23:11:44;97.78;;;38.22;;
31716;SDS011;18301;51.076;17.046;2022-11-20T23:16:45;88.53;;;36.97;;
31716;SDS011;18301;51.076;17.046;2022-11-20T23:21:47;90.68;;;38.20;;
31716;SDS011;18301;51.076;17.046;2022-11-20T23:26:48;108.85;;;43.95;;
31716;SDS011;18301;51.076;17.046;2022-11-20T23:31:50;110.35;;;43.90;;
31716;SDS011;18301;51.076;17.046;2022-11-20T23:36:51;104.45;;;41.70;;
31716;SDS011;18301;51.076;17.046;2022-11-20T23:41:53;107.03;;;43.78;;
31716;SDS011;18301;51.076;17.046;2022-11-20T23:46:54;102.47;;;41.95;;
31716;SDS011;18301;51.076;17.046;2022-11-20T23:51:55;102.60;;;40.25;;
31716;SDS011;18301;51.076;17.046;2022-11-20T23:56:57;98.25;;;39.80;;
